sensor_id;sensor_type;location;lat;lon;timestamp;pressure;altitude;pressure_sealevel;temperature;humidity
29379;BME280;16362;47.202;15.258;2023-02-03T00:00:46;96940.59;;;-0.01;100.00
29379;BME280;16362;47.202;15.258;2023-02-03T00:03:13;96936.94;;;0.02;100.00
29379;BME280;16362;47.202;15.258;2023-02-03T00:05:40;96942.00;;;0.05;100.00
29379;BME280;16362;47.202;15.258;2023-02-03T00:08:07;96943.59;;;0.08;100.00
29379;BME280;16362;47.202;15.258;2023-02-03T00:10:45;96946.31;;;0.06;100.00
29379;BME280;16362;47.202;15.258;2023-02-03T00:13:12;96928.72;;;0.08;100.00
29379;BME280;16362;47.202;15.258;2023-02-03T00:15:39;96929.19;;;0.15;100.00
29379;BME280;16362;47.202;15.258;2023-02-03T00:18:06;96933.78;;;0.11;100.00
29379;BME280;16362;47.202;15.258;2023-02-03T00:20:33;96932.91;;;0.11;100.00
29379;BME280;16362;47.202;15.258;2023-02-03T00:23:07;96928.53;;;0.11;100.00
29379;BME280;16362;47.202;15.258;2023-02-03T00:25:34;96931.50;;;0.05;100.00
29379;BME280;16362;47.202;15.258;2023-02-03T00:28:02;96933.59;;;0.00;100.00
29379;BME280;16362;47.202;15.258;2023-02-03T00:30:30;96932.00;;;-0.03;100.00
29379;BME280;16362;47.202;15.258;2023-02-03T00:32:56;96927.94;;;0.06;100.00
29379;BME280;16362;47.202;15.258;2023-02-03T00:35:23;96940.34;;;0.04;100.00
29379;BME280;16362;47.202;15.258;2023-02-03T00:37:54;96932.81;;;-0.02;100.00
29379;BME280;16362;47.202;15.258;2023-02-03T00:40:23;96938.06;;;-0.02;100.00
29379;BME280;16362;47.202;15.258;2023-02-03T00:42:51;96930.00;;;0.01;100.00
29379;BME280;16362;47.202;15.258;2023-02-03T00:45:18;96930.28;;;-0.04;100.00
29379;BME280;16362;47.202;15.258;2023-02-03T00:47:45;96935.25;;;0.01;100.00
29379;BME280;16362;47.202;15.258;2023-02-03T00:50:12;96940.78;;;-0.04;100.00
29379;BME280;16362;47.202;15.258;2023-02-03T00:52:39;96935.63;;;-0.05;100.00
29379;BME280;16362;47.202;15.258;2023-02-03T00:55:06;96934.69;;;-0.04;100.00
29379;BME280;16362;47.202;15.258;2023-02-03T00:57:33;96942.47;;;-0.03;100.00
29379;BME280;16362;47.202;15.258;2023-02-03T01:00:00;96936.38;;;-0.03;100.00
29379;BME280;16362;47.202;15.258;2023-02-03T01:02:26;96937.41;;;-0.06;100.00
29379;BME280;16362;47.202;15.258;2023-02-03T01:04:53;96930.97;;;0.00;100.00
29379;BME280;16362;47.202;15.258;2023-02-03T01:07:20;96924.28;;;0.09;100.00
29379;BME280;16362;47.202;15.258;2023-02-03T01:09:47;96918.47;;;0.04;100.00
29379;BME280;16362;47.202;15.258;2023-02-03T01:12:14;96919.50;;;0.01;100.00
29379;BME280;16362;47.202;15.258;2023-02-03T01:14:40;96920.06;;;0.06;100.00
29379;BME280;16362;47.202;15.258;2023-02-03T01:17:07;96918.03;;;0.11;100.00
29379;BME280;16362;47.202;15.258;2023-02-03T01:19:34;96922.03;;;0.03;100.00
29379;BME280;16362;47.202;15.258;2023-02-03T01:22:01;96922.31;;;-0.02;100.00
29379;BME280;16362;47.202;15.258;2023-02-03T01:24:28;96897.22;;;-0.06;100.00
29379;BME280;16362;47.202;15.258;2023-02-03T01:26:56;96916.50;;;-0.07;100.00
29379;BME280;16362;47.202;15.258;2023-02-03T01:29:37;96901.69;;;-0.08;100.00
29379;BME280;16362;47.202;15.258;2023-02-03T01:32:03;96901.06;;;-0.12;100.00
29379;BME280;16362;47.202;15.258;2023-02-03T01:34:30;96891.38;;;-0.11;100.00
29379;BME280;16362;47.202;15.258;2023-02-03T01:36:57;96892.31;;;-0.12;100.00
29379;BME280;16362;47.202;15.258;2023-02-03T01:39:24;96902.34;;;-0.19;100.00
29379;BME280;16362;47.202;15.258;2023-02-03T01:41:54;96891.00;;;-0.20;100.00
29379;BME280;16362;47.202;15.258;2023-02-03T01:44:40;96877.78;;;-0.18;100.00
29379;BME280;16362;47.202;15.258;2023-02-03T01:47:32;96886.25;;;-0.13;100.00
29379;BME280;16362;47.202;15.258;2023-02-03T01:50:30;96877.44;;;-0.12;100.00
29379;BME280;16362;47.202;15.258;2023-02-03T01:53:10;96876.56;;;-0.12;100.00
29379;BME280;16362;47.202;15.258;2023-02-03T01:55:41;96878.16;;;-0.10;100.00
29379;BME280;16362;47.202;15.258;2023-02-03T01:59:54;96881.47;;;-0.06;100.00
29379;BME280;16362;47.202;15.258;2023-02-03T02:02:21;96877.16;;;-0.07;100.00
29379;BME280;16362;47.202;15.258;2023-02-03T02:05:10;96864.88;;;-0.07;100.00
29379;BME280;16362;47.202;15.258;2023-02-03T02:07:40;96861.13;;;-0.17;100.00
29379;BME280;16362;47.202;15.258;2023-02-03T02:10:08;96862.16;;;-0.20;100.00
29379;BME280;16362;47.202;15.258;2023-02-03T02:12:35;96859.22;;;-0.15;100.00
29379;BME280;16362;47.202;15.258;2023-02-03T02:15:02;96863.66;;;-0.15;100.00
29379;BME280;16362;47.202;15.258;2023-02-03T02:35:17;96862.34;;;-0.23;100.00
29379;BME280;16362;47.202;15.258;2023-02-03T02:41:13;96851.09;;;-0.25;100.00
29379;BME280;16362;47.202;15.258;2023-02-03T02:45:59;96853.72;;;-0.25;100.00
29379;BME280;16362;47.202;15.258;2023-02-03T02:51:07;96857.19;;;-0.24;100.00
29379;BME280;16362;47.202;15.258;2023-02-03T02:53:38;96853.16;;;-0.15;100.00
29379;BME280;16362;47.202;15.258;2023-02-03T02:56:09;96858.59;;;-0.19;100.00
29379;BME280;16362;47.202;15.258;2023-02-03T02:58:38;96858.78;;;-0.22;100.00
29379;BME280;16362;47.202;15.258;2023-02-03T03:01:07;96850.34;;;-0.27;100.00
29379;BME280;16362;47.202;15.258;2023-02-03T03:03:35;96851.28;;;-0.28;100.00
29379;BME280;16362;47.202;15.258;2023-02-03T03:06:08;96845.22;;;-0.28;100.00
29379;BME280;16362;47.202;15.258;2023-02-03T03:08:45;96847.81;;;-0.28;100.00
29379;BME280;16362;47.202;15.258;2023-02-03T03:11:13;96856.44;;;-0.26;100.00
29379;BME280;16362;47.202;15.258;2023-02-03T03:13:46;96851.47;;;-0.17;100.00
29379;BME280;16362;47.202;15.258;2023-02-03T03:16:17;96857.19;;;-0.24;100.00
29379;BME280;16362;47.202;15.258;2023-02-03T03:18:48;96849.50;;;-0.27;100.00
29379;BME280;16362;47.202;15.258;2023-02-03T03:21:22;96844.16;;;-0.26;100.00
29379;BME280;16362;47.202;15.258;2023-02-03T03:23:51;96849.59;;;-0.29;100.00
29379;BME280;16362;47.202;15.258;2023-02-03T03:26:31;96840.88;;;-0.29;100.00
29379;BME280;16362;47.202;15.258;2023-02-03T03:29:09;96836.84;;;-0.21;100.00
29379;BME280;16362;47.202;15.258;2023-02-03T03:31:38;96834.63;;;-0.27;100.00
29379;BME280;16362;47.202;15.258;2023-02-03T03:34:10;96835.63;;;-0.29;100.00
29379;BME280;16362;47.202;15.258;2023-02-03T03:36:43;96835.44;;;-0.26;100.00
29379;BME280;16362;47.202;15.258;2023-02-03T03:42:04;96840.22;;;-0.19;100.00
29379;BME280;16362;47.202;15.258;2023-02-03T03:44:46;96834.69;;;-0.14;100.00
29379;BME280;16362;47.202;15.258;2023-02-03T03:47:21;96833.00;;;-0.15;100.00
29379;BME280;16362;47.202;15.258;2023-02-03T03:49:50;96844.56;;;-0.18;100.00
29379;BME280;16362;47.202;15.258;2023-02-03T03:52:22;96844.56;;;-0.18;100.00
29379;BME280;16362;47.202;15.258;2023-02-03T03:54:51;96843.59;;;-0.17;100.00
29379;BME280;16362;47.202;15.258;2023-02-03T03:57:24;96837.78;;;-0.07;100.00
29379;BME280;16362;47.202;15.258;2023-02-03T03:59:52;96840.41;;;-0.07;100.00
29379;BME280;16362;47.202;15.258;2023-02-03T04:02:21;96836.38;;;-0.13;100.00
29379;BME280;16362;47.202;15.258;2023-02-03T04:04:49;96836.59;;;-0.16;100.00
29379;BME280;16362;47.202;15.258;2023-02-03T04:07:16;96836.69;;;-0.18;100.00
29379;BME280;16362;47.202;15.258;2023-02-03T04:09:45;96837.72;;;-0.20;100.00
29379;BME280;16362;47.202;15.258;2023-02-03T04:12:18;96840.44;;;-0.22;100.00
29379;BME280;16362;47.202;15.258;2023-02-03T04:14:48;96834.06;;;-0.18;100.00
29379;BME280;16362;47.202;15.258;2023-02-03T04:17:14;96834.78;;;-0.15;100.00
29379;BME280;16362;47.202;15.258;2023-02-03T04:19:41;96833.50;;;-0.23;100.00
29379;BME280;16362;47.202;15.258;2023-02-03T04:22:08;96830.50;;;-0.31;100.00
29379;BME280;16362;47.202;15.258;2023-02-03T04:24:35;96826.19;;;-0.32;100.00
29379;BME280;16362;47.202;15.258;2023-02-03T04:27:02;96843.59;;;-0.31;100.00
29379;BME280;16362;47.202;15.258;2023-02-03T04:29:30;96846.22;;;-0.31;100.00
29379;BME280;16362;47.202;15.258;2023-02-03T04:35:51;96850.13;;;-0.38;100.00
29379;BME280;16362;47.202;15.258;2023-02-03T04:38:18;96848.00;;;-0.31;100.00
29379;BME280;16362;47.202;15.258;2023-02-03T04:40:45;96849.97;;;-0.21;100.00
29379;BME280;16362;47.202;15.258;2023-02-03T04:43:14;96849.13;;;-0.21;100.00
29379;BME280;16362;47.202;15.258;2023-02-03T04:45:42;96855.03;;;-0.32;100.00
29379;BME280;16362;47.202;15.258;2023-02-03T04:48:11;96845.66;;;-0.36;100.00
29379;BME280;16362;47.202;15.258;2023-02-03T04:50:50;96841.91;;;-0.32;100.00
29379;BME280;16362;47.202;15.258;2023-02-03T04:53:18;96840.41;;;-0.36;100.00
29379;BME280;16362;47.202;15.258;2023-02-03T04:55:46;96847.53;;;-0.38;100.00
29379;BME280;16362;47.202;15.258;2023-02-03T04:58:13;96840.03;;;-0.30;100.00
29379;BME280;16362;47.202;15.258;2023-02-03T05:02:04;96851.66;;;-0.20;100.00
29379;BME280;16362;47.202;15.258;2023-02-03T05:04:39;96845.84;;;-0.25;100.00
29379;BME280;16362;47.202;15.258;2023-02-03T05:07:06;96843.31;;;-0.26;100.00
29379;BME280;16362;47.202;15.258;2023-02-03T05:09:33;96839.19;;;-0.30;100.00
29379;BME280;16362;47.202;15.258;2023-02-03T05:11:59;96831.44;;;-0.18;100.00
29379;BME280;16362;47.202;15.258;2023-02-03T05:14:29;96822.50;;;-0.15;100.00
29379;BME280;16362;47.202;15.258;2023-02-03T05:16:56;96828.25;;;-0.23;100.00
29379;BME280;16362;47.202;15.258;2023-02-03T05:19:23;96832.56;;;-0.22;100.00
29379;BME280;16362;47.202;15.258;2023-02-03T05:21:49;96838.91;;;-0.11;100.00
29379;BME280;16362;47.202;15.258;2023-02-03T05:24:16;96838.91;;;-0.11;100.00
29379;BME280;16362;47.202;15.258;2023-02-03T05:26:43;96848.31;;;-0.22;100.00
29379;BME280;16362;47.202;15.258;2023-02-03T05:29:12;96853.72;;;-0.25;100.00
29379;BME280;16362;47.202;15.258;2023-02-03T05:31:38;96851.94;;;-0.24;100.00
29379;BME280;16362;47.202;15.258;2023-02-03T05:34:05;96853.81;;;-0.26;100.00
29379;BME280;16362;47.202;15.258;2023-02-03T05:36:32;96860.63;;;-0.38;100.00
29379;BME280;16362;47.202;15.258;2023-02-03T05:39:01;96853.88;;;-0.42;100.00
29379;BME280;16362;47.202;15.258;2023-02-03T05:41:30;96845.59;;;-0.20;100.00
29379;BME280;16362;47.202;15.258;2023-02-03T05:44:16;96852.41;;;-0.32;100.00
29379;BME280;16362;47.202;15.258;2023-02-03T05:46:42;96840.50;;;-0.38;100.00
29379;BME280;16362;47.202;15.258;2023-02-03T05:49:20;96840.59;;;-0.39;100.00
29379;BME280;16362;47.202;15.258;2023-02-03T05:51:51;96856.50;;;-0.42;100.00
29379;BME280;16362;47.202;15.258;2023-02-03T05:54:18;96839.84;;;-0.41;100.00
29379;BME280;16362;47.202;15.258;2023-02-03T05:56:45;96838.91;;;-0.40;100.00
29379;BME280;16362;47.202;15.258;2023-02-03T05:59:12;96838.72;;;-0.37;100.00
29379;BME280;16362;47.202;15.258;2023-02-03T06:01:39;96839.75;;;-0.40;100.00
29379;BME280;16362;47.202;15.258;2023-02-03T06:04:08;96829.94;;;-0.36;100.00
29379;BME280;16362;47.202;15.258;2023-02-03T06:06:37;96838.53;;;-0.34;100.00
29379;BME280;16362;47.202;15.258;2023-02-03T06:09:07;96842.47;;;-0.27;100.00
29379;BME280;16362;47.202;15.258;2023-02-03T06:11:35;96841.34;;;-0.23;100.00
29379;BME280;16362;47.202;15.258;2023-02-03T06:14:02;96834.13;;;-0.19;100.00
29379;BME280;16362;47.202;15.258;2023-02-03T06:16:29;96837.97;;;-0.25;100.00
29379;BME280;16362;47.202;15.258;2023-02-03T06:18:56;96823.34;;;-0.29;100.00
29379;BME280;16362;47.202;15.258;2023-02-03T06:21:27;96827.09;;;-0.33;100.00
29379;BME280;16362;47.202;15.258;2023-02-03T06:23:54;96823.56;;;-0.32;100.00
29379;BME280;16362;47.202;15.258;2023-02-03T06:26:22;96821.59;;;-0.28;100.00
29379;BME280;16362;47.202;15.258;2023-02-03T06:28:49;96818.88;;;-0.27;100.00
29379;BME280;16362;47.202;15.258;2023-02-03T06:32:03;96819.25;;;-0.33;100.00
29379;BME280;16362;47.202;15.258;2023-02-03T06:34:29;96814.00;;;-0.33;100.00
29379;BME280;16362;47.202;15.258;2023-02-03T06:36:56;96808.94;;;-0.36;100.00
29379;BME280;16362;47.202;15.258;2023-02-03T06:39:23;96806.31;;;-0.36;100.00
29379;BME280;16362;47.202;15.258;2023-02-03T06:41:50;96793.94;;;-0.34;100.00
29379;BME280;16362;47.202;15.258;2023-02-03T06:44:21;96795.16;;;-0.40;100.00
29379;BME280;16362;47.202;15.258;2023-02-03T06:46:51;96798.66;;;-0.39;100.00
29379;BME280;16362;47.202;15.258;2023-02-03T06:51:07;96811.28;;;-0.31;100.00
29379;BME280;16362;47.202;15.258;2023-02-03T06:53:34;96797.69;;;-0.24;100.00
29379;BME280;16362;47.202;15.258;2023-02-03T06:56:01;96813.13;;;-0.19;100.00
29379;BME280;16362;47.202;15.258;2023-02-03T06:58:28;96803.41;;;-0.17;100.00
29379;BME280;16362;47.202;15.258;2023-02-03T07:00:57;96798.38;;;-0.20;100.00
29379;BME280;16362;47.202;15.258;2023-02-03T07:03:24;96797.59;;;-0.22;100.00
29379;BME280;16362;47.202;15.258;2023-02-03T07:05:50;96795.75;;;-0.20;100.00
29379;BME280;16362;47.202;15.258;2023-02-03T07:08:17;96799.94;;;-0.18;100.00
29379;BME280;16362;47.202;15.258;2023-02-03T07:10:44;96796.09;;;-0.12;100.00
29379;BME280;16362;47.202;15.258;2023-02-03T07:13:10;96783.81;;;0.03;100.00
29379;BME280;16362;47.202;15.258;2023-02-03T07:15:37;96781.28;;;0.02;100.00
29379;BME280;16362;47.202;15.258;2023-02-03T07:18:49;96784.75;;;0.29;100.00
29379;BME280;16362;47.202;15.258;2023-02-03T07:21:15;96775.03;;;0.72;100.00
29379;BME280;16362;47.202;15.258;2023-02-03T07:23:42;96788.75;;;0.90;100.00
29379;BME280;16362;47.202;15.258;2023-02-03T07:26:09;96777.00;;;0.95;100.00
29379;BME280;16362;47.202;15.258;2023-02-03T07:30:31;96776.28;;;1.19;100.00
29379;BME280;16362;47.202;15.258;2023-02-03T07:32:57;96762.53;;;1.41;100.00
29379;BME280;16362;47.202;15.258;2023-02-03T07:35:24;96749.06;;;1.59;100.00
29379;BME280;16362;47.202;15.258;2023-02-03T07:37:52;96737.66;;;1.71;100.00
29379;BME280;16362;47.202;15.258;2023-02-03T07:40:19;96731.13;;;1.77;100.00
29379;BME280;16362;47.202;15.258;2023-02-03T07:42:47;96727.03;;;1.73;100.00
29379;BME280;16362;47.202;15.258;2023-02-03T07:45:27;96723.38;;;1.49;100.00
29379;BME280;16362;47.202;15.258;2023-02-03T07:47:54;96711.81;;;1.39;100.00
29379;BME280;16362;47.202;15.258;2023-02-03T07:50:20;96725.81;;;1.27;100.00
29379;BME280;16362;47.202;15.258;2023-02-03T07:52:49;96734.56;;;1.27;100.00
29379;BME280;16362;47.202;15.258;2023-02-03T07:55:16;96718.22;;;1.48;100.00
29379;BME280;16362;47.202;15.258;2023-02-03T07:57:42;96735.16;;;1.57;100.00
29379;BME280;16362;47.202;15.258;2023-02-03T08:00:12;96752.31;;;1.49;100.00
29379;BME280;16362;47.202;15.258;2023-02-03T08:02:42;96740.63;;;1.54;100.00
29379;BME280;16362;47.202;15.258;2023-02-03T08:05:10;96752.63;;;1.58;100.00
29379;BME280;16362;47.202;15.258;2023-02-03T08:07:37;96734.94;;;1.60;100.00
29379;BME280;16362;47.202;15.258;2023-02-03T08:10:04;96745.25;;;1.63;100.00
29379;BME280;16362;47.202;15.258;2023-02-03T08:12:31;96737.63;;;1.84;100.00
29379;BME280;16362;47.202;15.258;2023-02-03T08:14:57;96732.59;;;1.81;100.00
29379;BME280;16362;47.202;15.258;2023-02-03T08:17:25;96740.63;;;1.66;100.00
29379;BME280;16362;47.202;15.258;2023-02-03T08:19:52;96729.19;;;1.92;100.00
29379;BME280;16362;47.202;15.258;2023-02-03T08:22:18;96716.94;;;2.04;100.00
29379;BME280;16362;47.202;15.258;2023-02-03T08:24:45;96705.56;;;2.27;100.00
29379;BME280;16362;47.202;15.258;2023-02-03T08:27:14;96714.66;;;2.47;100.00
29379;BME280;16362;47.202;15.258;2023-02-03T08:29:41;96703.44;;;2.57;100.00
29379;BME280;16362;47.202;15.258;2023-02-03T08:32:11;96704.44;;;2.67;100.00
29379;BME280;16362;47.202;15.258;2023-02-03T08:34:38;96720.50;;;2.64;100.00
29379;BME280;16362;47.202;15.258;2023-02-03T08:37:05;96704.97;;;2.83;100.00
29379;BME280;16362;47.202;15.258;2023-02-03T08:39:32;96711.38;;;3.03;100.00
29379;BME280;16362;47.202;15.258;2023-02-03T08:42:00;96728.88;;;3.16;100.00
29379;BME280;16362;47.202;15.258;2023-02-03T08:44:30;96695.94;;;3.22;100.00
29379;BME280;16362;47.202;15.258;2023-02-03T08:46:57;96702.50;;;3.16;100.00
29379;BME280;16362;47.202;15.258;2023-02-03T08:49:26;96699.06;;;3.27;100.00
29379;BME280;16362;47.202;15.258;2023-02-03T08:51:54;96686.47;;;3.42;100.00
29379;BME280;16362;47.202;15.258;2023-02-03T08:54:22;96668.34;;;3.60;100.00
29379;BME280;16362;47.202;15.258;2023-02-03T08:56:49;96666.28;;;3.75;100.00
29379;BME280;16362;47.202;15.258;2023-02-03T08:59:16;96666.50;;;3.83;100.00
29379;BME280;16362;47.202;15.258;2023-02-03T09:01:43;96666.63;;;3.93;100.00
29379;BME280;16362;47.202;15.258;2023-02-03T09:04:11;96666.13;;;4.10;100.00
29379;BME280;16362;47.202;15.258;2023-02-03T09:06:38;96679.66;;;4.17;100.00
29379;BME280;16362;47.202;15.258;2023-02-03T09:09:05;96677.53;;;3.99;100.00
29379;BME280;16362;47.202;15.258;2023-02-03T09:11:32;96688.97;;;3.77;100.00
29379;BME280;16362;47.202;15.258;2023-02-03T09:13:58;96665.56;;;3.84;100.00
29379;BME280;16362;47.202;15.258;2023-02-03T09:19:03;96668.38;;;4.47;100.00
29379;BME280;16362;47.202;15.258;2023-02-03T09:21:30;96667.28;;;4.50;100.00
29379;BME280;16362;47.202;15.258;2023-02-03T09:24:09;96674.13;;;4.52;100.00
29379;BME280;16362;47.202;15.258;2023-02-03T09:26:36;96692.97;;;4.80;100.00
29379;BME280;16362;47.202;15.258;2023-02-03T09:29:03;96663.66;;;4.83;100.00
29379;BME280;16362;47.202;15.258;2023-02-03T09:31:30;96667.94;;;5.05;100.00
29379;BME280;16362;47.202;15.258;2023-02-03T09:33:58;96665.91;;;5.09;100.00
29379;BME280;16362;47.202;15.258;2023-02-03T09:36:25;96675.19;;;5.34;100.00
29379;BME280;16362;47.202;15.258;2023-02-03T09:38:52;96679.34;;;5.27;100.00
29379;BME280;16362;47.202;15.258;2023-02-03T09:41:51;96659.44;;;5.33;100.00
29379;BME280;16362;47.202;15.258;2023-02-03T09:46:59;96674.94;;;5.06;100.00
29379;BME280;16362;47.202;15.258;2023-02-03T09:50:05;96655.94;;;4.80;100.00
29379;BME280;16362;47.202;15.258;2023-02-03T09:52:28;96656.09;;;4.58;100.00
29379;BME280;16362;47.202;15.258;2023-02-03T09:54:57;96659.13;;;4.74;100.00
29379;BME280;16362;47.202;15.258;2023-02-03T09:57:29;96633.84;;;4.81;100.00
29379;BME280;16362;47.202;15.258;2023-02-03T09:59:58;96644.41;;;5.02;100.00
29379;BME280;16362;47.202;15.258;2023-02-03T10:02:55;96623.06;;;4.94;100.00
29379;BME280;16362;47.202;15.258;2023-02-03T10:10:58;96626.97;;;5.21;100.00
29379;BME280;16362;47.202;15.258;2023-02-03T10:16:17;96610.72;;;5.04;100.00
29379;BME280;16362;47.202;15.258;2023-02-03T10:18:53;96607.91;;;5.27;100.00
29379;BME280;16362;47.202;15.258;2023-02-03T10:21:44;96601.16;;;5.44;100.00
29379;BME280;16362;47.202;15.258;2023-02-03T10:24:17;96582.97;;;5.30;100.00
29379;BME280;16362;47.202;15.258;2023-02-03T10:26:46;96601.41;;;4.79;100.00
29379;BME280;16362;47.202;15.258;2023-02-03T10:29:19;96595.81;;;4.72;100.00
29379;BME280;16362;47.202;15.258;2023-02-03T10:31:46;96575.28;;;4.65;100.00
29379;BME280;16362;47.202;15.258;2023-02-03T10:34:15;96573.38;;;4.98;100.00
29379;BME280;16362;47.202;15.258;2023-02-03T10:36:56;96568.97;;;5.08;100.00
29379;BME280;16362;47.202;15.258;2023-02-03T10:39:58;96580.00;;;4.82;100.00
29379;BME280;16362;47.202;15.258;2023-02-03T10:42:28;96557.41;;;4.78;100.00
29379;BME280;16362;47.202;15.258;2023-02-03T10:45:16;96550.88;;;5.03;100.00
29379;BME280;16362;47.202;15.258;2023-02-03T10:47:48;96540.19;;;5.25;100.00
29379;BME280;16362;47.202;15.258;2023-02-03T10:50:22;96543.78;;;5.64;100.00
29379;BME280;16362;47.202;15.258;2023-02-03T10:52:49;96547.72;;;5.70;100.00
29379;BME280;16362;47.202;15.258;2023-02-03T10:57:53;96530.66;;;5.53;100.00
29379;BME280;16362;47.202;15.258;2023-02-03T11:00:31;96510.63;;;5.89;100.00
29379;BME280;16362;47.202;15.258;2023-02-03T11:05:26;96519.84;;;5.85;100.00
29379;BME280;16362;47.202;15.258;2023-02-03T11:07:53;96520.13;;;5.72;100.00
29379;BME280;16362;47.202;15.258;2023-02-03T11:10:36;96513.13;;;5.62;100.00
29379;BME280;16362;47.202;15.258;2023-02-03T11:13:24;96499.22;;;5.79;100.00
29379;BME280;16362;47.202;15.258;2023-02-03T11:16:01;96502.97;;;5.96;100.00
29379;BME280;16362;47.202;15.258;2023-02-03T11:18:38;96507.69;;;5.73;100.00
29379;BME280;16362;47.202;15.258;2023-02-03T11:21:14;96478.84;;;5.70;100.00
29379;BME280;16362;47.202;15.258;2023-02-03T11:23:51;96482.63;;;5.97;100.00
29379;BME280;16362;47.202;15.258;2023-02-03T11:26:25;96487.91;;;5.97;100.00
29379;BME280;16362;47.202;15.258;2023-02-03T11:28:56;96483.47;;;5.87;100.00
29379;BME280;16362;47.202;15.258;2023-02-03T11:31:30;96483.31;;;5.79;100.00
29379;BME280;16362;47.202;15.258;2023-02-03T11:34:08;96462.56;;;6.04;100.00
29379;BME280;16362;47.202;15.258;2023-02-03T11:36:41;96456.25;;;6.24;100.00
29379;BME280;16362;47.202;15.258;2023-02-03T11:39:19;96459.63;;;6.07;100.00
29379;BME280;16362;47.202;15.258;2023-02-03T11:41:47;96431.97;;;6.19;100.00
29379;BME280;16362;47.202;15.258;2023-02-03T11:44:23;96424.25;;;6.46;100.00
29379;BME280;16362;47.202;15.258;2023-02-03T11:47:03;96401.41;;;6.72;100.00
29379;BME280;16362;47.202;15.258;2023-02-03T11:55:19;96406.19;;;6.21;100.00
29379;BME280;16362;47.202;15.258;2023-02-03T12:03:48;96388.78;;;5.99;100.00
29379;BME280;16362;47.202;15.258;2023-02-03T12:12:06;96372.81;;;6.29;100.00
29379;BME280;16362;47.202;15.258;2023-02-03T12:20:43;96352.22;;;6.13;100.00
29379;BME280;16362;47.202;15.258;2023-02-03T12:23:32;96352.06;;;6.14;100.00
29379;BME280;16362;47.202;15.258;2023-02-03T12:34:45;96317.97;;;6.39;100.00
29379;BME280;16362;47.202;15.258;2023-02-03T12:37:07;96314.50;;;6.29;100.00
29379;BME280;16362;47.202;15.258;2023-02-03T12:39:40;96330.84;;;6.24;100.00
29379;BME280;16362;47.202;15.258;2023-02-03T12:47:44;96304.00;;;6.65;100.00
29379;BME280;16362;47.202;15.258;2023-02-03T12:50:33;96285.31;;;7.02;100.00
29379;BME280;16362;47.202;15.258;2023-02-03T12:53:05;96277.88;;;7.06;100.00
29379;BME280;16362;47.202;15.258;2023-02-03T12:55:40;96271.91;;;7.04;100.00
29379;BME280;16362;47.202;15.258;2023-02-03T12:58:29;96268.09;;;6.88;100.00
29379;BME280;16362;47.202;15.258;2023-02-03T13:09:01;96227.00;;;7.11;100.00
29379;BME280;16362;47.202;15.258;2023-02-03T13:11:55;96231.97;;;6.87;100.00
29379;BME280;16362;47.202;15.258;2023-02-03T13:14:29;96220.34;;;6.88;100.00
29379;BME280;16362;47.202;15.258;2023-02-03T13:17:03;96202.25;;;6.84;100.00
29379;BME280;16362;47.202;15.258;2023-02-03T13:19:42;96196.13;;;6.83;100.00
29379;BME280;16362;47.202;15.258;2023-02-03T13:22:12;96198.88;;;6.82;100.00
29379;BME280;16362;47.202;15.258;2023-02-03T13:24:46;96188.50;;;6.88;100.00
29379;BME280;16362;47.202;15.258;2023-02-03T13:27:50;96175.34;;;6.79;100.00
29379;BME280;16362;47.202;15.258;2023-02-03T13:30:31;96164.88;;;6.77;100.00
29379;BME280;16362;47.202;15.258;2023-02-03T13:39:14;96149.81;;;6.42;100.00
29379;BME280;16362;47.202;15.258;2023-02-03T13:45:37;96160.81;;;6.65;100.00
29379;BME280;16362;47.202;15.258;2023-02-03T13:47:38;96151.09;;;6.55;100.00
29379;BME280;16362;47.202;15.258;2023-02-03T13:50:21;96153.91;;;6.54;100.00
29379;BME280;16362;47.202;15.258;2023-02-03T13:56:02;96155.34;;;6.48;100.00
29379;BME280;16362;47.202;15.258;2023-02-03T13:58:36;96153.22;;;6.34;100.00
29379;BME280;16362;47.202;15.258;2023-02-03T14:03:50;96135.84;;;6.03;100.00
29379;BME280;16362;47.202;15.258;2023-02-03T14:14:57;96103.53;;;6.00;100.00
29379;BME280;16362;47.202;15.258;2023-02-03T14:20:03;96066.09;;;5.85;100.00
29379;BME280;16362;47.202;15.258;2023-02-03T14:22:51;96058.16;;;5.85;100.00
29379;BME280;16362;47.202;15.258;2023-02-03T14:25:19;96061.63;;;5.85;100.00
29379;BME280;16362;47.202;15.258;2023-02-03T14:27:47;96062.13;;;5.99;100.00
29379;BME280;16362;47.202;15.258;2023-02-03T14:30:24;96051.13;;;5.94;100.00
29379;BME280;16362;47.202;15.258;2023-02-03T14:32:55;96032.53;;;6.03;100.00
29379;BME280;16362;47.202;15.258;2023-02-03T14:35:32;96024.53;;;6.13;100.00
29379;BME280;16362;47.202;15.258;2023-02-03T14:38:02;96028.91;;;6.04;100.00
29379;BME280;16362;47.202;15.258;2023-02-03T14:57:52;96008.59;;;5.31;100.00
29379;BME280;16362;47.202;15.258;2023-02-03T15:00:29;95988.31;;;5.50;100.00
29379;BME280;16362;47.202;15.258;2023-02-03T15:05:47;95978.78;;;6.11;96.52
29379;BME280;16362;47.202;15.258;2023-02-03T15:08:37;95995.38;;;6.39;91.00
29379;BME280;16362;47.202;15.258;2023-02-03T15:11:22;95989.78;;;6.69;95.13
29379;BME280;16362;47.202;15.258;2023-02-03T15:13:50;96005.75;;;6.77;86.73
29379;BME280;16362;47.202;15.258;2023-02-03T15:16:19;96000.97;;;6.81;91.51
29379;BME280;16362;47.202;15.258;2023-02-03T15:18:53;95997.41;;;6.72;91.27
29379;BME280;16362;47.202;15.258;2023-02-03T15:21:21;95994.72;;;6.64;93.99
29379;BME280;16362;47.202;15.258;2023-02-03T15:23:47;96004.59;;;6.53;90.80
29379;BME280;16362;47.202;15.258;2023-02-03T15:26:17;96005.28;;;6.55;95.76
29379;BME280;16362;47.202;15.258;2023-02-03T15:29:05;96017.19;;;6.51;90.18
29379;BME280;16362;47.202;15.258;2023-02-03T15:31:45;96020.22;;;6.56;87.32
29379;BME280;16362;47.202;15.258;2023-02-03T15:34:29;96021.25;;;6.64;85.65
29379;BME280;16362;47.202;15.258;2023-02-03T15:37:04;96022.06;;;6.64;89.89